sensor_id;sensor_type;location;lat;lon;timestamp;pressure;altitude;pressure_sealevel;temperature;humidity
71907;BME280;59781;52.090;5.030;2022-11-15T00:01:18;100753.88;;;6.79;100.00
71907;BME280;59781;52.090;5.030;2022-11-15T00:05:34;100758.59;;;6.58;100.00
71907;BME280;59781;52.090;5.030;2022-11-15T00:09:03;100758.97;;;6.73;100.00
71907;BME280;59781;52.090;5.030;2022-11-15T00:11:47;100753.41;;;6.84;100.00
71907;BME280;59781;52.090;5.030;2022-11-15T00:14:57;100743.00;;;6.81;100.00
71907;BME280;59781;52.090;5.030;2022-11-15T00:18:38;100751.97;;;6.89;100.00
71907;BME280;59781;52.090;5.030;2022-11-15T00:22:41;100750.41;;;7.14;100.00
71907;BME280;59781;52.090;5.030;2022-11-15T00:25:25;100740.03;;;6.84;100.00
71907;BME280;59781;52.090;5.030;2022-11-15T00:29:04;100731.69;;;6.87;100.00
71907;BME280;59781;52.090;5.030;2022-11-15T00:32:14;100733.34;;;7.15;100.00
71907;BME280;59781;52.090;5.030;2022-11-15T00:34:58;100746.50;;;7.09;100.00
71907;BME280;59781;52.090;5.030;2022-11-15T00:38:22;100742.00;;;7.09;100.00
71907;BME280;59781;52.090;5.030;2022-11-15T00:41:33;100732.56;;;7.05;100.00
71907;BME280;59781;52.090;5.030;2022-11-15T00:44:17;100736.19;;;6.86;100.00
71907;BME280;59781;52.090;5.030;2022-11-15T00:47:01;100726.22;;;6.88;100.00
71907;BME280;59781;52.090;5.030;2022-11-15T00:49:46;100720.78;;;7.16;100.00
71907;BME280;59781;52.090;5.030;2022-11-15T00:53:02;100719.56;;;7.10;100.00
71907;BME280;59781;52.090;5.030;2022-11-15T00:56:49;100710.94;;;7.34;100.00
71907;BME280;59781;52.090;5.030;2022-11-15T01:00:13;100709.91;;;7.17;100.00
71907;BME280;59781;52.090;5.030;2022-11-15T01:02:57;100701.59;;;7.03;100.00
71907;BME280;59781;52.090;5.030;2022-11-15T01:05:41;100706.88;;;7.30;100.00
71907;BME280;59781;52.090;5.030;2022-11-15T01:08:26;100700.53;;;7.31;100.00
71907;BME280;59781;52.090;5.030;2022-11-15T01:12:16;100704.13;;;7.58;100.00
71907;BME280;59781;52.090;5.030;2022-11-15T01:15:01;100705.81;;;7.41;100.00
71907;BME280;59781;52.090;5.030;2022-11-15T01:18:14;100708.16;;;7.44;100.00
71907;BME280;59781;52.090;5.030;2022-11-15T01:22:03;100716.69;;;7.83;100.00
71907;BME280;59781;52.090;5.030;2022-11-15T01:24:49;100698.78;;;7.66;100.00
71907;BME280;59781;52.090;5.030;2022-11-15T01:27:35;100691.56;;;7.84;100.00
71907;BME280;59781;52.090;5.030;2022-11-15T01:30:41;100694.25;;;7.84;100.00
71907;BME280;59781;52.090;5.030;2022-11-15T01:34:05;100678.31;;;7.83;100.00
71907;BME280;59781;52.090;5.030;2022-11-15T01:36:49;100683.75;;;7.91;100.00
71907;BME280;59781;52.090;5.030;2022-11-15T01:39:34;100677.31;;;7.84;100.00
71907;BME280;59781;52.090;5.030;2022-11-15T01:42:18;100687.94;;;7.93;100.00
71907;BME280;59781;52.090;5.030;2022-11-15T01:45:18;100686.47;;;7.99;100.00
71907;BME280;59781;52.090;5.030;2022-11-15T01:49:14;100691.09;;;7.89;100.00
71907;BME280;59781;52.090;5.030;2022-11-15T01:52:55;100693.22;;;7.77;100.00
71907;BME280;59781;52.090;5.030;2022-11-15T01:56:46;100682.13;;;8.06;100.00
71907;BME280;59781;52.090;5.030;2022-11-15T01:59:53;100678.31;;;8.09;100.00
71907;BME280;59781;52.090;5.030;2022-11-15T02:02:38;100667.44;;;8.10;100.00
71907;BME280;59781;52.090;5.030;2022-11-15T02:05:46;100669.09;;;8.11;100.00
71907;BME280;59781;52.090;5.030;2022-11-15T02:09:48;100666.91;;;8.07;100.00
71907;BME280;59781;52.090;5.030;2022-11-15T02:13:17;100653.75;;;8.21;100.00
71907;BME280;59781;52.090;5.030;2022-11-15T02:16:16;100651.13;;;8.03;100.00
71907;BME280;59781;52.090;5.030;2022-11-15T02:22:36;100627.53;;;8.41;100.00
71907;BME280;59781;52.090;5.030;2022-11-15T02:32:50;100613.50;;;8.63;100.00
71907;BME280;59781;52.090;5.030;2022-11-15T02:35:54;100613.84;;;8.60;100.00
71907;BME280;59781;52.090;5.030;2022-11-15T02:42:23;100600.91;;;8.56;100.00
71907;BME280;59781;52.090;5.030;2022-11-15T02:45:51;100594.72;;;8.55;100.00
71907;BME280;59781;52.090;5.030;2022-11-15T02:49:02;100596.41;;;8.81;100.00
71907;BME280;59781;52.090;5.030;2022-11-15T02:51:50;100594.75;;;9.12;100.00
71907;BME280;59781;52.090;5.030;2022-11-15T02:54:37;100594.94;;;8.86;100.00
71907;BME280;59781;52.090;5.030;2022-11-15T02:57:52;100597.59;;;8.78;100.00
71907;BME280;59781;52.090;5.030;2022-11-15T03:04:43;100598.94;;;8.82;100.00
71907;BME280;59781;52.090;5.030;2022-11-15T03:11:14;100591.75;;;8.99;100.00
71907;BME280;59781;52.090;5.030;2022-11-15T03:17:29;100588.22;;;9.15;100.00
71907;BME280;59781;52.090;5.030;2022-11-15T03:20:19;100587.72;;;9.19;100.00
71907;BME280;59781;52.090;5.030;2022-11-15T03:23:48;100587.72;;;9.44;100.00
71907;BME280;59781;52.090;5.030;2022-11-15T03:26:39;100587.38;;;9.06;100.00
71907;BME280;59781;52.090;5.030;2022-11-15T03:29:33;100600.13;;;9.12;100.00
71907;BME280;59781;52.090;5.030;2022-11-15T03:32:44;100603.16;;;9.17;100.00
71907;BME280;59781;52.090;5.030;2022-11-15T03:35:42;100595.59;;;9.13;100.00
71907;BME280;59781;52.090;5.030;2022-11-15T03:38:32;100595.28;;;9.08;100.00
71907;BME280;59781;52.090;5.030;2022-11-15T03:45:35;100594.41;;;9.40;100.00
71907;BME280;59781;52.090;5.030;2022-11-15T03:48:34;100591.38;;;9.59;100.00
71907;BME280;59781;52.090;5.030;2022-11-15T03:51:30;100597.28;;;9.55;100.00
71907;BME280;59781;52.090;5.030;2022-11-15T03:54:16;100590.34;;;9.60;100.00
71907;BME280;59781;52.090;5.030;2022-11-15T03:57:01;100582.38;;;9.91;100.00
71907;BME280;59781;52.090;5.030;2022-11-15T03:59:45;100578.91;;;9.74;100.00
71907;BME280;59781;52.090;5.030;2022-11-15T04:02:54;100578.31;;;10.03;100.00
71907;BME280;59781;52.090;5.030;2022-11-15T04:05:41;100581.34;;;9.92;100.00
71907;BME280;59781;52.090;5.030;2022-11-15T04:08:32;100570.38;;;10.02;100.00
71907;BME280;59781;52.090;5.030;2022-11-15T04:11:25;100572.31;;;9.85;100.00
71907;BME280;59781;52.090;5.030;2022-11-15T04:14:51;100566.09;;;9.85;100.00
71907;BME280;59781;52.090;5.030;2022-11-15T04:17:59;100572.31;;;9.85;100.00
71907;BME280;59781;52.090;5.030;2022-11-15T04:20:43;100563.25;;;9.86;100.00
71907;BME280;59781;52.090;5.030;2022-11-15T04:23:46;100571.59;;;9.91;100.00
71907;BME280;59781;52.090;5.030;2022-11-15T04:26:56;100557.84;;;9.86;100.00
71907;BME280;59781;52.090;5.030;2022-11-15T04:30:01;100558.41;;;10.13;100.00
71907;BME280;59781;52.090;5.030;2022-11-15T04:32:46;100551.84;;;10.15;100.00
71907;BME280;59781;52.090;5.030;2022-11-15T04:35:46;100555.69;;;10.21;100.00
71907;BME280;59781;52.090;5.030;2022-11-15T04:39:10;100547.69;;;10.44;100.00
71907;BME280;59781;52.090;5.030;2022-11-15T04:41:54;100554.22;;;10.49;100.00
71907;BME280;59781;52.090;5.030;2022-11-15T04:44:38;100559.53;;;10.34;100.00
71907;BME280;59781;52.090;5.030;2022-11-15T04:47:25;100569.31;;;10.27;100.00
71907;BME280;59781;52.090;5.030;2022-11-15T04:50:40;100568.97;;;10.30;100.00
71907;BME280;59781;52.090;5.030;2022-11-15T04:53:24;100573.81;;;10.35;100.00
71907;BME280;59781;52.090;5.030;2022-11-15T04:56:08;100575.34;;;10.21;100.00
71907;BME280;59781;52.090;5.030;2022-11-15T04:58:52;100576.34;;;10.37;100.00
71907;BME280;59781;52.090;5.030;2022-11-15T05:01:36;100569.50;;;10.57;100.00
71907;BME280;59781;52.090;5.030;2022-11-15T05:04:21;100576.59;;;10.11;100.00
71907;BME280;59781;52.090;5.030;2022-11-15T05:07:05;100575.03;;;10.32;100.00
71907;BME280;59781;52.090;5.030;2022-11-15T05:09:49;100573.81;;;10.35;100.00
71907;BME280;59781;52.090;5.030;2022-11-15T05:12:33;100575.25;;;10.23;100.00
71907;BME280;59781;52.090;5.030;2022-11-15T05:15:23;100587.34;;;10.50;100.00
71907;BME280;59781;52.090;5.030;2022-11-15T05:18:10;100585.44;;;10.36;100.00
71907;BME280;59781;52.090;5.030;2022-11-15T05:20:55;100576.63;;;10.42;100.00
71907;BME280;59781;52.090;5.030;2022-11-15T05:23:40;100582.22;;;10.32;100.00
71907;BME280;59781;52.090;5.030;2022-11-15T05:26:28;100584.47;;;10.51;100.00
71907;BME280;59781;52.090;5.030;2022-11-15T05:29:33;100584.16;;;10.54;100.00
71907;BME280;59781;52.090;5.030;2022-11-15T05:32:25;100582.53;;;10.45;100.00
71907;BME280;59781;52.090;5.030;2022-11-15T05:35:28;100579.03;;;10.37;100.00
71907;BME280;59781;52.090;5.030;2022-11-15T05:38:15;100585.56;;;10.42;100.00
71907;BME280;59781;52.090;5.030;2022-11-15T05:41:00;100582.09;;;10.33;100.00
71907;BME280;59781;52.090;5.030;2022-11-15T05:43:48;100583.22;;;10.39;100.00
71907;BME280;59781;52.090;5.030;2022-11-15T05:46:37;100586.41;;;10.43;100.00
71907;BME280;59781;52.090;5.030;2022-11-15T05:49:28;100583.00;;;10.49;100.00
71907;BME280;59781;52.090;5.030;2022-11-15T05:52:33;100587.50;;;10.79;100.00
71907;BME280;59781;52.090;5.030;2022-11-15T05:55:39;100594.28;;;10.52;100.00
71907;BME280;59781;52.090;5.030;2022-11-15T05:58:25;100598.44;;;10.55;100.00
71907;BME280;59781;52.090;5.030;2022-11-15T06:01:09;100598.44;;;10.55;100.00
71907;BME280;59781;52.090;5.030;2022-11-15T06:03:54;100599.97;;;10.49;100.00
71907;BME280;59781;52.090;5.030;2022-11-15T06:06:39;100597.88;;;10.37;100.00
71907;BME280;59781;52.090;5.030;2022-11-15T06:09:24;100590.59;;;10.45;100.00
71907;BME280;59781;52.090;5.030;2022-11-15T06:12:10;100585.81;;;10.55;100.00
71907;BME280;59781;52.090;5.030;2022-11-15T06:14:54;100590.09;;;10.42;100.00
71907;BME280;59781;52.090;5.030;2022-11-15T06:17:38;100588.88;;;10.52;100.00
71907;BME280;59781;52.090;5.030;2022-11-15T06:20:22;100589.00;;;10.59;100.00
71907;BME280;59781;52.090;5.030;2022-11-15T06:23:09;100605.34;;;10.57;100.00
71907;BME280;59781;52.090;5.030;2022-11-15T06:25:53;100602.28;;;10.91;100.00
71907;BME280;59781;52.090;5.030;2022-11-15T06:28:41;100606.19;;;10.81;100.00
71907;BME280;59781;52.090;5.030;2022-11-15T06:31:25;100614.50;;;10.71;100.00
71907;BME280;59781;52.090;5.030;2022-11-15T06:34:10;100616.06;;;10.66;100.00
71907;BME280;59781;52.090;5.030;2022-11-15T06:36:54;100616.69;;;10.76;100.00
71907;BME280;59781;52.090;5.030;2022-11-15T06:39:39;100612.81;;;10.70;100.00
71907;BME280;59781;52.090;5.030;2022-11-15T06:42:23;100618.09;;;10.63;100.00
71907;BME280;59781;52.090;5.030;2022-11-15T06:45:07;100620.00;;;10.55;100.00
71907;BME280;59781;52.090;5.030;2022-11-15T06:47:52;100618.84;;;10.49;100.00
71907;BME280;59781;52.090;5.030;2022-11-15T06:50:38;100626.66;;;10.67;100.00
71907;BME280;59781;52.090;5.030;2022-11-15T06:53:22;100633.28;;;10.56;100.00
71907;BME280;59781;52.090;5.030;2022-11-15T06:56:07;100627.06;;;10.56;100.00
71907;BME280;59781;52.090;5.030;2022-11-15T06:58:53;100623.44;;;10.72;100.00
71907;BME280;59781;52.090;5.030;2022-11-15T07:01:37;100625.47;;;10.30;100.00
71907;BME280;59781;52.090;5.030;2022-11-15T07:04:22;100634.44;;;10.62;100.00
71907;BME280;59781;52.090;5.030;2022-11-15T07:07:11;100640.13;;;10.67;100.00
71907;BME280;59781;52.090;5.030;2022-11-15T07:09:55;100630.00;;;10.38;100.00
71907;BME280;59781;52.090;5.030;2022-11-15T07:12:40;100630.19;;;10.37;100.00
71907;BME280;59781;52.090;5.030;2022-11-15T07:15:26;100633.66;;;10.45;100.00
71907;BME280;59781;52.090;5.030;2022-11-15T07:18:10;100642.53;;;10.23;100.00
71907;BME280;59781;52.090;5.030;2022-11-15T07:20:55;100638.44;;;10.35;100.00
71907;BME280;59781;52.090;5.030;2022-11-15T07:23:43;100648.88;;;10.30;100.00
71907;BME280;59781;52.090;5.030;2022-11-15T07:26:28;100646.88;;;10.16;100.00
71907;BME280;59781;52.090;5.030;2022-11-15T07:29:13;100634.88;;;10.43;100.00
71907;BME280;59781;52.090;5.030;2022-11-15T07:31:58;100635.00;;;10.49;100.00
71907;BME280;59781;52.090;5.030;2022-11-15T07:34:42;100630.88;;;10.61;100.00
71907;BME280;59781;52.090;5.030;2022-11-15T07:37:27;100626.06;;;10.49;100.00
71907;BME280;59781;52.090;5.030;2022-11-15T07:40:12;100625.78;;;10.44;100.00
71907;BME280;59781;52.090;5.030;2022-11-15T07:43:05;100624.09;;;10.43;100.00
71907;BME280;59781;52.090;5.030;2022-11-15T07:45:51;100631.63;;;10.47;100.00
71907;BME280;59781;52.090;5.030;2022-11-15T07:48:37;100641.22;;;10.81;100.00
71907;BME280;59781;52.090;5.030;2022-11-15T07:51:23;100643.28;;;10.71;100.00
71907;BME280;59781;52.090;5.030;2022-11-15T07:54:07;100637.69;;;10.80;100.00
71907;BME280;59781;52.090;5.030;2022-11-15T07:56:52;100630.81;;;10.47;100.00
71907;BME280;59781;52.090;5.030;2022-11-15T07:59:36;100623.88;;;10.83;100.00
71907;BME280;59781;52.090;5.030;2022-11-15T08:02:21;100619.00;;;10.48;100.00
71907;BME280;59781;52.090;5.030;2022-11-15T08:05:07;100615.19;;;10.42;100.00
71907;BME280;59781;52.090;5.030;2022-11-15T08:07:51;100621.91;;;10.38;100.00
71907;BME280;59781;52.090;5.030;2022-11-15T08:10:36;100618.75;;;10.66;100.00
71907;BME280;59781;52.090;5.030;2022-11-15T08:13:21;100612.13;;;10.45;100.00
71907;BME280;59781;52.090;5.030;2022-11-15T08:16:09;100614.50;;;10.71;100.00
71907;BME280;59781;52.090;5.030;2022-11-15T08:18:56;100619.00;;;10.79;100.00
71907;BME280;59781;52.090;5.030;2022-11-15T08:22:01;100613.59;;;10.56;100.00
71907;BME280;59781;52.090;5.030;2022-11-15T08:24:45;100616.25;;;10.33;100.00
71907;BME280;59781;52.090;5.030;2022-11-15T08:27:30;100605.34;;;10.57;100.00
71907;BME280;59781;52.090;5.030;2022-11-15T08:30:39;100599.94;;;10.57;100.00
71907;BME280;59781;52.090;5.030;2022-11-15T08:33:25;100587.22;;;10.74;100.00
71907;BME280;59781;52.090;5.030;2022-11-15T08:36:35;100587.84;;;10.84;100.00
71907;BME280;59781;52.090;5.030;2022-11-15T08:39:45;100582.31;;;10.78;100.00
71907;BME280;59781;52.090;5.030;2022-11-15T08:42:53;100581.97;;;11.41;100.00
71907;BME280;59781;52.090;5.030;2022-11-15T08:45:38;100580.09;;;11.80;98.54
71907;BME280;59781;52.090;5.030;2022-11-15T08:48:22;100580.66;;;12.04;96.73
71907;BME280;59781;52.090;5.030;2022-11-15T08:51:11;100581.09;;;12.23;94.05
71907;BME280;59781;52.090;5.030;2022-11-15T08:53:56;100587.81;;;12.12;95.05
71907;BME280;59781;52.090;5.030;2022-11-15T08:56:40;100591.56;;;11.59;95.05
71907;BME280;59781;52.090;5.030;2022-11-15T08:59:24;100589.69;;;11.44;96.62
71907;BME280;59781;52.090;5.030;2022-11-15T09:02:47;100579.34;;;12.30;91.57
71907;BME280;59781;52.090;5.030;2022-11-15T09:05:31;100573.94;;;12.15;92.97
71907;BME280;59781;52.090;5.030;2022-11-15T09:09:02;100576.72;;;12.94;88.18
71907;BME280;59781;52.090;5.030;2022-11-15T09:11:47;100567.09;;;13.28;84.95
71907;BME280;59781;52.090;5.030;2022-11-15T09:14:31;100563.78;;;12.89;86.46
71907;BME280;59781;52.090;5.030;2022-11-15T09:17:15;100555.16;;;12.79;85.80
71907;BME280;59781;52.090;5.030;2022-11-15T09:20:00;100557.28;;;12.12;90.44
71907;BME280;59781;52.090;5.030;2022-11-15T09:23:05;100556.94;;;12.51;88.30
71907;BME280;59781;52.090;5.030;2022-11-15T09:26:14;100554.44;;;12.71;85.82
71907;BME280;59781;52.090;5.030;2022-11-15T09:28:58;100555.59;;;13.26;84.35
71907;BME280;59781;52.090;5.030;2022-11-15T09:31:42;100552.25;;;13.24;84.59
71907;BME280;59781;52.090;5.030;2022-11-15T09:34:48;100553.41;;;13.14;82.36
71907;BME280;59781;52.090;5.030;2022-11-15T09:38:12;100553.53;;;13.56;81.88
71907;BME280;59781;52.090;5.030;2022-11-15T09:48:27;100555.91;;;12.73;84.73
71907;BME280;59781;52.090;5.030;2022-11-15T09:51:34;100553.50;;;13.21;82.98
71907;BME280;59781;52.090;5.030;2022-11-15T09:54:36;100558.56;;;13.31;80.81
71907;BME280;59781;52.090;5.030;2022-11-15T09:58:15;100554.38;;;12.64;84.14
71907;BME280;59781;52.090;5.030;2022-11-15T10:04:37;100553.34;;;12.65;82.77
71907;BME280;59781;52.090;5.030;2022-11-15T10:11:51;100535.31;;;13.15;81.33
71907;BME280;59781;52.090;5.030;2022-11-15T10:15:05;100524.94;;;13.40;78.94
71907;BME280;59781;52.090;5.030;2022-11-15T10:18:07;100527.66;;;13.46;77.13
71907;BME280;59781;52.090;5.030;2022-11-15T10:25:17;100516.69;;;13.27;77.38
71907;BME280;59781;52.090;5.030;2022-11-15T10:27:52;100508.84;;;13.32;77.75
71907;BME280;59781;52.090;5.030;2022-11-15T10:30:22;100512.72;;;13.23;77.22
71907;BME280;59781;52.090;5.030;2022-11-15T10:34:18;100502.19;;;13.34;76.78
71907;BME280;59781;52.090;5.030;2022-11-15T10:37:07;100498.59;;;13.27;77.47
71907;BME280;59781;52.090;5.030;2022-11-15T10:41:07;100485.34;;;13.32;77.62
71907;BME280;59781;52.090;5.030;2022-11-15T10:43:33;100488.78;;;13.19;77.74
71907;BME280;59781;52.090;5.030;2022-11-15T10:47:16;100489.31;;;13.36;77.90
71907;BME280;59781;52.090;5.030;2022-11-15T10:50:59;100496.84;;;14.30;73.09
71907;BME280;59781;52.090;5.030;2022-11-15T10:55:24;100473.94;;;14.32;72.56
71907;BME280;59781;52.090;5.030;2022-11-15T10:58:41;100484.94;;;14.18;71.57
71907;BME280;59781;52.090;5.030;2022-11-15T11:01:57;100451.94;;;15.15;68.52
71907;BME280;59781;52.090;5.030;2022-11-15T11:08:39;100448.31;;;14.28;68.73
71907;BME280;59781;52.090;5.030;2022-11-15T11:11:06;100453.22;;;13.98;71.01
71907;BME280;59781;52.090;5.030;2022-11-15T11:13:38;100445.88;;;13.86;71.18
71907;BME280;59781;52.090;5.030;2022-11-15T11:16:48;100445.47;;;13.89;70.97
71907;BME280;59781;52.090;5.030;2022-11-15T11:22:55;100450.50;;;14.05;71.30
71907;BME280;59781;52.090;5.030;2022-11-15T11:40:29;100431.13;;;13.88;69.93
71907;BME280;59781;52.090;5.030;2022-11-15T11:46:48;100409.94;;;14.12;69.11
71907;BME280;59781;52.090;5.030;2022-11-15T12:28:56;100335.66;;;13.60;68.03
71907;BME280;59781;52.090;5.030;2022-11-15T12:34:48;100308.03;;;13.77;65.69
71907;BME280;59781;52.090;5.030;2022-11-15T12:53:57;100283.78;;;13.43;67.96
71907;BME280;59781;52.090;5.030;2022-11-15T12:57:28;100286.13;;;13.59;67.41
71907;BME280;59781;52.090;5.030;2022-11-15T13:02:26;100275.00;;;13.34;67.48
71907;BME280;59781;52.090;5.030;2022-11-15T13:06:07;100261.66;;;13.19;68.09
71907;BME280;59781;52.090;5.030;2022-11-15T13:12:49;100257.19;;;13.05;68.46
71907;BME280;59781;52.090;5.030;2022-11-15T13:16:01;100260.94;;;13.04;68.02
71907;BME280;59781;52.090;5.030;2022-11-15T13:18:59;100261.00;;;13.17;67.72
71907;BME280;59781;52.090;5.030;2022-11-15T13:23:18;100260.47;;;12.94;68.14
71907;BME280;59781;52.090;5.030;2022-11-15T13:27:14;100235.78;;;13.04;67.39
71907;BME280;59781;52.090;5.030;2022-11-15T13:30:25;100241.59;;;13.01;67.75
71907;BME280;59781;52.090;5.030;2022-11-15T13:34:37;100236.78;;;12.96;68.18
71907;BME280;59781;52.090;5.030;2022-11-15T13:38:39;100242.69;;;12.72;69.25
71907;BME280;59781;52.090;5.030;2022-11-15T13:41:47;100230.34;;;12.56;70.28
71907;BME280;59781;52.090;5.030;2022-11-15T13:46:09;100221.16;;;12.91;69.81
71907;BME280;59781;52.090;5.030;2022-11-15T13:49:07;100214.72;;;12.92;69.47
71907;BME280;59781;52.090;5.030;2022-11-15T13:57:43;100200.22;;;13.00;69.52
71907;BME280;59781;52.090;5.030;2022-11-15T14:01:13;100190.16;;;12.87;69.64
71907;BME280;59781;52.090;5.030;2022-11-15T14:04:55;100184.50;;;12.69;70.06
71907;BME280;59781;52.090;5.030;2022-11-15T14:12:50;100165.25;;;12.44;71.34
71907;BME280;59781;52.090;5.030;2022-11-15T14:16:20;100163.00;;;13.02;69.36
71907;BME280;59781;52.090;5.030;2022-11-15T14:23:31;100156.41;;;12.63;72.58
71907;BME280;59781;52.090;5.030;2022-11-15T14:26:05;100146.03;;;12.26;73.35
71907;BME280;59781;52.090;5.030;2022-11-15T14:28:47;100146.50;;;12.36;74.07
71907;BME280;59781;52.090;5.030;2022-11-15T14:31:20;100144.03;;;12.06;74.92
71907;BME280;59781;52.090;5.030;2022-11-15T14:34:35;100137.75;;;11.99;75.86
71907;BME280;59781;52.090;5.030;2022-11-15T14:38:37;100133.63;;;12.38;74.21
71907;BME280;59781;52.090;5.030;2022-11-15T14:42:01;100130.56;;;12.06;75.98
71907;BME280;59781;52.090;5.030;2022-11-15T14:46:10;100115.75;;;12.30;74.78
71907;BME280;59781;52.090;5.030;2022-11-15T14:50:25;100110.66;;;11.80;76.79
71907;BME280;59781;52.090;5.030;2022-11-15T14:53:33;100105.03;;;12.09;75.60
71907;BME280;59781;52.090;5.030;2022-11-15T14:56:04;100105.03;;;12.09;75.44
71907;BME280;59781;52.090;5.030;2022-11-15T15:03:06;100087.34;;;12.00;74.75
71907;BME280;59781;52.090;5.030;2022-11-15T15:07:19;100081.19;;;12.13;73.90
71907;BME280;59781;52.090;5.030;2022-11-15T15:11:27;100073.19;;;12.32;72.50
71907;BME280;59781;52.090;5.030;2022-11-15T15:15:09;100070.84;;;11.88;74.10
71907;BME280;59781;52.090;5.030;2022-11-15T15:18:58;100064.38;;;12.17;72.80
71907;BME280;59781;52.090;5.030;2022-11-15T15:22:51;100053.56;;;12.11;73.08
71907;BME280;59781;52.090;5.030;2022-11-15T15:26:58;100046.06;;;12.06;72.71
71907;BME280;59781;52.090;5.030;2022-11-15T15:31:01;100042.97;;;12.16;71.99
71907;BME280;59781;52.090;5.030;2022-11-15T15:34:31;100046.75;;;12.28;71.62
71907;BME280;59781;52.090;5.030;2022-11-15T15:37:53;100040.59;;;11.93;73.31
71907;BME280;59781;52.090;5.030;2022-11-15T15:41:33;100041.28;;;12.01;73.36
71907;BME280;59781;52.090;5.030;2022-11-15T15:50:32;100024.81;;;12.44;71.41
71907;BME280;59781;52.090;5.030;2022-11-15T15:59:00;100019.94;;;12.13;72.53
71907;BME280;59781;52.090;5.030;2022-11-15T16:03:22;100012.84;;;12.05;73.42
71907;BME280;59781;52.090;5.030;2022-11-15T16:15:16;100027.03;;;12.27;72.26
71907;BME280;59781;52.090;5.030;2022-11-15T16:19:12;100008.31;;;12.13;72.56
71907;BME280;59781;52.090;5.030;2022-11-15T16:23:23;100008.41;;;12.39;71.63
71907;BME280;59781;52.090;5.030;2022-11-15T16:27:09;100004.66;;;12.40;72.35
71907;BME280;59781;52.090;5.030;2022-11-15T16:30:14;100019.72;;;12.15;73.58
71907;BME280;59781;52.090;5.030;2022-11-15T16:34:16;100015.31;;;12.07;75.88
71907;BME280;59781;52.090;5.030;2022-11-15T16:38:15;100015.91;;;11.96;75.95
71907;BME280;59781;52.090;5.030;2022-11-15T16:41:05;100016.78;;;12.03;76.74
71907;BME280;59781;52.090;5.030;2022-11-15T16:44:09;100021.25;;;11.83;77.62
71907;BME280;59781;52.090;5.030;2022-11-15T16:47:10;100022.47;;;11.80;80.51
71907;BME280;59781;52.090;5.030;2022-11-15T16:49:54;100015.25;;;11.59;81.77
71907;BME280;59781;52.090;5.030;2022-11-15T16:52:40;100021.72;;;11.65;83.97
71907;BME280;59781;52.090;5.030;2022-11-15T16:55:09;100016.78;;;11.40;85.36
71907;BME280;59781;52.090;5.030;2022-11-15T16:57:35;100020.41;;;11.26;86.54
71907;BME280;59781;52.090;5.030;2022-11-15T17:00:02;100017.38;;;11.36;87.65
71907;BME280;59781;52.090;5.030;2022-11-15T17:02:28;100014.75;;;11.42;88.75
71907;BME280;59781;52.090;5.030;2022-11-15T17:04:55;100017.63;;;11.13;90.65
71907;BME280;59781;52.090;5.030;2022-11-15T17:07:20;100017.53;;;11.28;91.42
71907;BME280;59781;52.090;5.030;2022-11-15T17:10:09;100008.44;;;11.07;92.58
71907;BME280;59781;52.090;5.030;2022-11-15T17:13:16;100003.38;;;10.98;93.89
71907;BME280;59781;52.090;5.030;2022-11-15T17:15:42;100003.31;;;11.12;94.13
71907;BME280;59781;52.090;5.030;2022-11-15T17:18:11;100000.47;;;10.93;94.48
71907;BME280;59781;52.090;5.030;2022-11-15T17:28:45;100003.41;;;10.33;100.00
71907;BME280;59781;52.090;5.030;2022-11-15T17:31:13;100005.31;;;10.40;100.00
71907;BME280;59781;52.090;5.030;2022-11-15T17:33:39;100002.94;;;10.51;100.00
71907;BME280;59781;52.090;5.030;2022-11-15T17:36:09;99993.06;;;10.37;100.00
71907;BME280;59781;52.090;5.030;2022-11-15T17:38:37;99993.00;;;10.30;100.00
71907;BME280;59781;52.090;5.030;2022-11-15T17:45:41;99976.84;;;10.52;100.00
71907;BME280;59781;52.090;5.030;2022-11-15T17:53:34;99984.50;;;10.48;100.00
71907;BME280;59781;52.090;5.030;2022-11-15T17:57:38;99983.56;;;10.41;100.00
71907;BME280;59781;52.090;5.030;2022-11-15T18:01:29;99977.03;;;10.50;100.00
71907;BME280;59781;52.090;5.030;2022-11-15T18:08:48;99969.81;;;10.51;100.00
71907;BME280;59781;52.090;5.030;2022-11-15T18:12:19;99963.28;;;10.60;100.00
71907;BME280;59781;52.090;5.030;2022-11-15T18:14:45;99967.38;;;10.56;100.00
71907;BME280;59781;52.090;5.030;2022-11-15T18:17:47;99975.19;;;10.51;100.00
71907;BME280;59781;52.090;5.030;2022-11-15T18:22:03;99966.44;;;10.42;100.00
71907;BME280;59781;52.090;5.030;2022-11-15T18:25:59;99961.72;;;10.51;100.00
71907;BME280;59781;52.090;5.030;2022-11-15T18:29:38;99960.34;;;10.55;100.00
71907;BME280;59781;52.090;5.030;2022-11-15T18:32:26;99959.09;;;10.57;100.00
71907;BME280;59781;52.090;5.030;2022-11-15T18:47:57;99938.38;;;10.79;100.00
71907;BME280;59781;52.090;5.030;2022-11-15T18:50:23;99938.78;;;10.76;100.00
71907;BME280;59781;52.090;5.030;2022-11-15T18:52:49;99939.09;;;10.67;100.00
71907;BME280;59781;52.090;5.030;2022-11-15T18:55:14;99937.94;;;10.76;100.00
71907;BME280;59781;52.090;5.030;2022-11-15T19:31:43;99934.88;;;11.07;100.00
71907;BME280;59781;52.090;5.030;2022-11-15T19:34:47;99929.66;;;10.77;100.00
71907;BME280;59781;52.090;5.030;2022-11-15T19:38:43;99931.59;;;10.83;100.00
71907;BME280;59781;52.090;5.030;2022-11-15T19:41:30;99921.25;;;10.87;100.00
71907;BME280;59781;52.090;5.030;2022-11-15T19:47:51;99926.56;;;10.80;100.00
71907;BME280;59781;52.090;5.030;2022-11-15T19:50:17;99928.84;;;10.77;100.00
71907;BME280;59781;52.090;5.030;2022-11-15T19:56:44;99911.31;;;10.87;100.00
71907;BME280;59781;52.090;5.030;2022-11-15T19:59:10;99911.38;;;10.94;100.00
71907;BME280;59781;52.090;5.030;2022-11-15T20:07:19;99902.50;;;11.35;100.00